createdAt,value
2022-08-21T00:00:00.122Z,0.00
2022-08-21T00:01:00.027Z,0.00
2022-08-21T00:02:00.050Z,0.00
2022-08-21T00:02:59.987Z,0.00
2022-08-21T00:03:59.993Z,0.00
2022-08-21T00:05:00.018Z,0.00
2022-08-21T00:05:59.952Z,0.00
2022-08-21T00:06:59.942Z,0.00
2022-08-21T00:07:59.969Z,0.00
2022-08-21T00:09:06.277Z,0.00
2022-08-21T00:10:02.933Z,0.00
2022-08-21T00:11:04.084Z,0.00
2022-08-21T00:11:59.878Z,0.00
2022-08-21T00:12:59.962Z,0.00
2022-08-21T00:13:59.852Z,0.00
2022-08-21T00:14:59.959Z,0.00
2022-08-21T00:15:59.838Z,0.00
2022-08-21T00:17:00.298Z,0.00
2022-08-21T00:17:59.837Z,0.00
2022-08-21T00:18:59.854Z,0.00
2022-08-21T00:19:59.782Z,0.00
2022-08-21T00:21:00.651Z,0.00
2022-08-21T00:21:59.792Z,0.00
2022-08-21T00:23:00.484Z,0.00
2022-08-21T00:23:59.715Z,0.00
2022-08-21T00:24:59.774Z,0.00
2022-08-21T00:25:59.744Z,0.00
2022-08-21T00:26:59.716Z,0.00
2022-08-21T00:28:00.864Z,0.00
2022-08-21T00:28:59.665Z,0.00
2022-08-21T00:29:59.716Z,0.00
2022-08-21T00:30:59.680Z,0.00
2022-08-21T00:31:59.608Z,0.00
2022-08-21T00:32:59.978Z,0.00
2022-08-21T00:34:26.843Z,0.00
2022-08-21T00:34:59.646Z,0.00
2022-08-21T00:35:59.572Z,0.00
2022-08-21T00:36:59.589Z,0.00
2022-08-21T00:38:00.413Z,0.00
2022-08-21T00:38:59.635Z,0.00
2022-08-21T00:40:00.534Z,0.00
2022-08-21T00:41:21.142Z,0.00
2022-08-21T00:42:00.521Z,0.00
2022-08-21T00:42:59.474Z,0.00
2022-08-21T00:44:00.388Z,0.00
2022-08-21T00:44:59.460Z,0.00
2022-08-21T00:45:59.457Z,0.00
2022-08-21T00:46:59.469Z,0.00
2022-08-21T00:47:59.455Z,0.00
2022-08-21T00:48:59.405Z,0.00
2022-08-21T00:49:59.432Z,0.00
2022-08-21T00:50:59.438Z,0.00
2022-08-21T00:51:59.340Z,0.00
2022-08-21T00:52:59.531Z,0.00
2022-08-21T00:53:59.524Z,0.00
2022-08-21T00:54:59.335Z,0.00
2022-08-21T00:55:59.303Z,0.00
2022-08-21T00:56:59.564Z,0.00
2022-08-21T00:57:59.254Z,0.00
2022-08-21T00:59:01.811Z,0.00
2022-08-21T00:59:59.238Z,0.00
2022-08-21T01:00:59.522Z,0.00
2022-08-21T01:02:00.361Z,0.00
2022-08-21T01:03:09.017Z,0.00
2022-08-21T01:04:00.192Z,0.00
2022-08-21T01:04:59.177Z,0.00
2022-08-21T01:05:59.862Z,0.00
2022-08-21T01:07:00.123Z,0.00
2022-08-21T01:07:59.216Z,0.00
2022-08-21T01:08:59.176Z,0.00
2022-08-21T01:10:00.009Z,0.00
2022-08-21T01:11:00.878Z,0.00
2022-08-21T01:11:59.152Z,0.00
2022-08-21T01:12:59.240Z,0.00
2022-08-21T01:13:59.051Z,0.00
2022-08-21T01:14:59.058Z,0.00
2022-08-21T01:15:59.026Z,0.00
2022-08-21T01:17:05.716Z,0.00
2022-08-21T01:17:59.019Z,0.00
2022-08-21T01:18:59.091Z,0.00
2022-08-21T01:19:58.988Z,0.00
2022-08-21T01:20:58.995Z,0.00
2022-08-21T01:21:59.028Z,0.00
2022-08-21T01:23:05.746Z,0.00
2022-08-21T01:23:58.959Z,0.00
2022-08-21T01:24:58.932Z,0.00
2022-08-21T01:25:58.926Z,0.00
2022-08-21T01:27:05.770Z,0.00
2022-08-21T01:27:59.901Z,0.00
2022-08-21T01:28:59.271Z,0.00
2022-08-21T01:29:59.034Z,0.00
2022-08-21T01:30:59.768Z,0.00
2022-08-21T01:31:59.747Z,0.00
2022-08-21T01:32:59.225Z,0.00
2022-08-21T01:33:58.784Z,0.00
2022-08-21T01:34:59.491Z,0.00
2022-08-21T01:35:58.780Z,0.00
2022-08-21T01:36:58.811Z,0.00
2022-08-21T01:37:58.743Z,0.00
2022-08-21T01:38:58.808Z,0.00
2022-08-21T01:39:58.802Z,0.00
2022-08-21T01:40:58.703Z,0.00
2022-08-21T01:41:58.682Z,0.00
2022-08-21T01:42:58.999Z,0.00
2022-08-21T01:43:58.795Z,0.00
2022-08-21T01:44:59.696Z,0.00
2022-08-21T01:45:58.627Z,0.00
2022-08-21T01:46:58.607Z,0.00
2022-08-21T01:47:58.646Z,0.00
2022-08-21T01:48:58.618Z,0.00
2022-08-21T01:49:58.564Z,0.00
2022-08-21T01:50:58.937Z,0.00
2022-08-21T01:51:58.796Z,0.00
2022-08-21T01:52:58.937Z,0.00
2022-08-21T01:54:00.359Z,0.00
2022-08-21T01:54:58.517Z,0.00
2022-08-21T01:55:58.549Z,0.00
2022-08-21T01:56:58.472Z,0.00
2022-08-21T01:57:58.480Z,0.00
2022-08-21T01:58:58.448Z,0.00
2022-08-21T01:59:58.429Z,0.00
2022-08-21T02:00:58.527Z,0.00
2022-08-21T02:01:58.508Z,0.00
2022-08-21T02:02:58.580Z,0.00
2022-08-21T02:03:59.347Z,0.00
2022-08-21T02:04:58.373Z,0.00
2022-08-21T02:05:58.431Z,0.00
2022-08-21T02:06:58.335Z,0.00
2022-08-21T02:07:58.349Z,0.00
2022-08-21T02:08:58.331Z,0.00
2022-08-21T02:09:59.264Z,0.00
2022-08-21T02:10:58.323Z,0.00
2022-08-21T02:11:58.291Z,0.00
2022-08-21T02:12:58.417Z,0.00
2022-08-21T02:13:58.358Z,0.00
2022-08-21T02:14:58.233Z,0.00
2022-08-21T02:15:58.246Z,0.00
2022-08-21T02:17:09.825Z,0.00
2022-08-21T02:18:14.711Z,0.00
2022-08-21T02:18:58.172Z,0.00
2022-08-21T02:19:58.260Z,0.00
2022-08-21T02:21:01.785Z,0.00
2022-08-21T02:21:58.163Z,0.00
2022-08-21T02:22:58.279Z,0.00
2022-08-21T02:24:10.690Z,0.00
2022-08-21T02:24:59.115Z,0.00
2022-08-21T02:25:58.080Z,0.00
2022-08-21T02:26:58.088Z,0.00
2022-08-21T02:27:58.077Z,0.00
2022-08-21T02:28:58.152Z,0.00
2022-08-21T02:30:01.538Z,0.00
2022-08-21T02:30:58.230Z,0.00
2022-08-21T02:31:58.009Z,0.00
2022-08-21T02:32:58.428Z,0.00
2022-08-21T02:33:58.008Z,0.00
2022-08-21T02:34:58.057Z,0.00
2022-08-21T02:35:57.969Z,0.00
2022-08-21T02:36:58.743Z,0.00
2022-08-21T02:37:57.932Z,0.00
2022-08-21T02:38:57.989Z,0.00
2022-08-21T02:39:58.102Z,0.00
2022-08-21T02:40:57.911Z,0.00
2022-08-21T02:41:57.875Z,0.00
2022-08-21T02:42:57.996Z,0.00
2022-08-21T02:43:58.058Z,0.00
2022-08-21T02:44:58.111Z,0.00
2022-08-21T02:45:58.784Z,0.00
2022-08-21T02:46:57.820Z,0.00
2022-08-21T02:48:01.339Z,0.00
2022-08-21T02:48:58.779Z,0.00
2022-08-21T02:49:57.808Z,0.00
2022-08-21T02:50:57.839Z,0.00
2022-08-21T02:51:57.773Z,0.00
2022-08-21T02:53:00.821Z,0.00
2022-08-21T02:53:57.733Z,0.00
2022-08-21T02:54:59.125Z,0.00
2022-08-21T02:55:57.817Z,0.00
2022-08-21T02:56:57.690Z,0.00
2022-08-21T02:57:57.756Z,0.00
2022-08-21T02:58:58.561Z,0.00
2022-08-21T03:00:01.559Z,0.00
2022-08-21T03:00:57.679Z,0.00
2022-08-21T03:01:59.151Z,0.00
2022-08-21T03:02:57.723Z,0.00
2022-08-21T03:03:57.615Z,0.00
2022-08-21T03:04:57.605Z,0.00
2022-08-21T03:05:57.582Z,0.00
2022-08-21T03:06:57.634Z,0.00
2022-08-21T03:07:57.904Z,0.00
2022-08-21T03:08:57.581Z,0.00
2022-08-21T03:09:57.555Z,0.00
2022-08-21T03:11:05.747Z,0.00
2022-08-21T03:12:03.421Z,0.00
2022-08-21T03:12:57.706Z,0.00
2022-08-21T03:13:57.496Z,0.00
2022-08-21T03:14:58.155Z,0.00
2022-08-21T03:15:58.412Z,0.00
2022-08-21T03:16:57.735Z,0.00
2022-08-21T03:17:59.565Z,0.00
2022-08-21T03:18:57.457Z,0.00
2022-08-21T03:19:57.377Z,0.00
2022-08-21T03:20:57.447Z,0.00
2022-08-21T03:21:57.392Z,0.00
2022-08-21T03:22:57.660Z,0.00
2022-08-21T03:23:58.288Z,0.00
2022-08-21T03:24:57.365Z,0.00
2022-08-21T03:26:00.574Z,0.00
2022-08-21T03:26:57.337Z,0.00
2022-08-21T03:27:59.242Z,0.00
2022-08-21T03:28:57.298Z,0.00
2022-08-21T03:29:57.242Z,0.00
2022-08-21T03:30:57.231Z,0.00
2022-08-21T03:32:11.946Z,0.00
2022-08-21T03:32:58.401Z,0.00
2022-08-21T03:33:58.218Z,0.00
2022-08-21T03:34:57.306Z,0.00
2022-08-21T03:36:00.828Z,0.00
2022-08-21T03:37:00.935Z,4.00
2022-08-21T03:37:57.229Z,4.00
2022-08-21T03:39:11.951Z,4.00
2022-08-21T03:39:58.233Z,4.00
2022-08-21T03:40:58.063Z,4.00
2022-08-21T03:42:00.236Z,8.00
2022-08-21T03:43:00.548Z,4.00
2022-08-21T03:44:01.822Z,8.00
2022-08-21T03:44:58.003Z,8.00
2022-08-21T03:45:57.073Z,12.00
2022-08-21T03:47:05.022Z,12.00
2022-08-21T03:47:58.795Z,12.00
2022-08-21T03:48:58.409Z,16.00
2022-08-21T03:49:59.703Z,16.00
2022-08-21T03:51:00.562Z,24.00
2022-08-21T03:52:01.579Z,28.00
2022-08-21T03:53:05.731Z,28.00
2022-08-21T03:54:19.503Z,36.00
2022-08-21T03:54:56.995Z,40.00
2022-08-21T03:55:57.814Z,44.00
2022-08-21T03:56:57.884Z,52.00
2022-08-21T03:57:56.920Z,60.00
2022-08-21T03:58:56.925Z,64.00
2022-08-21T03:59:56.877Z,76.00
2022-08-21T04:01:03.796Z,84.00
2022-08-21T04:01:57.921Z,96.00
2022-08-21T04:02:57.574Z,104.00
2022-08-21T04:03:56.855Z,116.00
2022-08-21T04:04:57.668Z,128.00
2022-08-21T04:05:56.838Z,140.00
2022-08-21T04:06:56.806Z,152.00
2022-08-21T04:07:56.835Z,164.00
2022-08-21T04:08:56.752Z,176.00
2022-08-21T04:10:06.394Z,192.00
2022-08-21T04:10:56.710Z,208.00
2022-08-21T04:11:57.777Z,224.00
2022-08-21T04:12:56.803Z,240.00
2022-08-21T04:13:56.792Z,256.00
2022-08-21T04:14:58.883Z,272.00
2022-08-21T04:16:01.096Z,288.00
2022-08-21T04:16:56.648Z,308.00
2022-08-21T04:17:56.640Z,328.00
2022-08-21T04:18:58.258Z,348.00
2022-08-21T04:19:56.626Z,368.00
2022-08-21T04:20:57.303Z,392.00
2022-08-21T04:21:57.542Z,416.00
2022-08-21T04:23:00.770Z,436.00
2022-08-21T04:23:57.437Z,456.00
2022-08-21T04:24:57.960Z,480.00
2022-08-21T04:25:56.556Z,496.00
2022-08-21T04:26:56.497Z,520.00
2022-08-21T04:27:56.519Z,540.00
2022-08-21T04:28:57.992Z,564.00
2022-08-21T04:29:56.514Z,580.00
2022-08-21T04:30:56.476Z,600.00
2022-08-21T04:31:56.496Z,620.00
2022-08-21T04:32:57.650Z,640.00
2022-08-21T04:33:57.483Z,664.00
2022-08-21T04:35:04.004Z,684.00
2022-08-21T04:35:56.370Z,708.00
2022-08-21T04:37:04.043Z,736.00
2022-08-21T04:38:05.233Z,756.00
2022-08-21T04:38:57.435Z,780.00
2022-08-21T04:39:56.418Z,808.00
2022-08-21T04:40:56.313Z,836.00
2022-08-21T04:41:56.338Z,872.00
2022-08-21T04:42:56.356Z,916.00
2022-08-21T04:43:56.283Z,960.00
2022-08-21T04:44:56.256Z,1004.00
2022-08-21T04:45:56.266Z,1036.00
2022-08-21T04:46:56.234Z,1036.00
2022-08-21T04:47:56.303Z,1044.00
2022-08-21T04:48:56.197Z,1056.00
2022-08-21T04:49:56.646Z,1056.00
2022-08-21T04:50:56.197Z,1068.00
2022-08-21T04:51:56.325Z,1080.00
2022-08-21T04:52:56.407Z,1080.00
2022-08-21T04:53:56.138Z,1076.00
2022-08-21T04:54:56.242Z,1084.00
2022-08-21T04:55:56.135Z,1128.00
2022-08-21T04:56:57.060Z,1192.00
2022-08-21T04:57:56.088Z,1276.00
2022-08-21T04:58:56.191Z,1360.00
2022-08-21T04:59:56.090Z,1424.00
2022-08-21T05:00:56.110Z,1472.00
2022-08-21T05:01:56.130Z,1504.00
2022-08-21T05:02:56.207Z,1508.00
2022-08-21T05:03:56.009Z,1560.00
2022-08-21T05:04:56.000Z,1628.00
2022-08-21T05:05:55.991Z,1704.00
2022-08-21T05:06:56.028Z,1760.00
2022-08-21T05:07:55.960Z,1824.00
2022-08-21T05:09:01.579Z,1904.00
2022-08-21T05:09:56.953Z,2000.00
2022-08-21T05:11:00.290Z,2128.00
2022-08-21T05:11:55.948Z,2268.00
2022-08-21T05:12:55.942Z,2408.00
2022-08-21T05:13:56.998Z,2552.00
2022-08-21T05:14:55.868Z,2612.00
2022-08-21T05:15:55.850Z,2652.00
2022-08-21T05:16:55.855Z,2880.00
2022-08-21T05:18:01.448Z,3188.00
2022-08-21T05:18:56.816Z,3424.00
2022-08-21T05:19:55.822Z,3664.00
2022-08-21T05:20:55.891Z,3860.00
2022-08-21T05:21:55.842Z,4028.00
2022-08-21T05:22:55.755Z,4152.00
2022-08-21T05:23:55.743Z,4208.00
2022-08-21T05:24:55.724Z,4276.00
2022-08-21T05:25:55.725Z,4316.00
2022-08-21T05:26:55.727Z,4260.00
2022-08-21T05:27:55.786Z,4164.00
2022-08-21T05:28:55.707Z,4016.00
2022-08-21T05:29:55.672Z,3872.00
2022-08-21T05:30:55.668Z,3812.00
2022-08-21T05:31:55.722Z,3808.00
2022-08-21T05:32:55.657Z,3804.00
2022-08-21T05:33:56.027Z,3772.00
2022-08-21T05:34:55.598Z,3724.00
2022-08-21T05:35:55.587Z,3624.00
2022-08-21T05:36:55.613Z,3492.00
2022-08-21T05:37:55.647Z,3440.00
2022-08-21T05:38:55.607Z,3452.00
2022-08-21T05:40:04.725Z,3504.00
2022-08-21T05:40:58.051Z,3564.00
2022-08-21T05:41:55.523Z,3620.00
2022-08-21T05:42:55.876Z,3668.00
2022-08-21T05:43:55.505Z,3696.00
2022-08-21T05:44:55.501Z,3700.00
2022-08-21T05:45:55.461Z,3660.00
2022-08-21T05:46:55.442Z,3632.00
2022-08-21T05:47:55.510Z,3700.00
2022-08-21T05:48:55.441Z,3772.00
2022-08-21T05:49:55.396Z,3824.00
2022-08-21T05:50:55.449Z,3888.00
2022-08-21T05:51:55.418Z,3936.00
2022-08-21T05:52:58.415Z,3956.00
2022-08-21T05:53:57.203Z,3992.00
2022-08-21T05:54:55.331Z,4032.00
2022-08-21T05:55:55.356Z,4092.00
2022-08-21T05:56:55.343Z,4140.00
2022-08-21T05:57:55.350Z,4180.00
2022-08-21T05:58:55.331Z,4208.00
2022-08-21T05:59:55.282Z,4224.00
2022-08-21T06:00:55.272Z,4220.00
2022-08-21T06:01:55.307Z,4268.00
2022-08-21T06:02:55.353Z,4340.00
2022-08-21T06:03:57.149Z,4408.00
2022-08-21T06:04:56.931Z,4508.00
2022-08-21T06:05:55.282Z,4632.00
2022-08-21T06:06:55.282Z,4796.00
2022-08-21T06:07:55.185Z,4932.00
2022-08-21T06:08:55.220Z,4884.00
2022-08-21T06:09:57.006Z,4840.00
2022-08-21T06:10:55.190Z,4984.00
2022-08-21T06:11:56.043Z,5124.00
2022-08-21T06:12:56.138Z,5268.00
2022-08-21T06:13:55.135Z,5476.00
2022-08-21T06:14:55.158Z,5688.00
2022-08-21T06:15:55.090Z,5848.00
2022-08-21T06:16:56.044Z,6016.00
2022-08-21T06:18:02.176Z,6232.00
2022-08-21T06:18:57.528Z,6428.00
2022-08-21T06:19:56.028Z,6600.00
2022-08-21T06:20:55.039Z,6768.00
2022-08-21T06:21:55.008Z,6892.00
2022-08-21T06:22:55.002Z,6952.00
2022-08-21T06:23:55.767Z,7040.00
2022-08-21T06:24:55.022Z,7040.00
2022-08-21T06:25:54.963Z,6920.00
2022-08-21T06:26:54.907Z,6804.00
2022-08-21T06:27:57.098Z,6772.00
2022-08-21T06:28:57.801Z,6724.00
2022-08-21T06:29:54.886Z,6776.00
2022-08-21T06:30:54.890Z,6940.00
2022-08-21T06:31:55.201Z,7240.00
2022-08-21T06:32:55.110Z,7312.00
2022-08-21T06:33:54.869Z,7188.00
2022-08-21T06:34:55.533Z,6956.00
2022-08-21T06:35:56.259Z,6716.00
2022-08-21T06:36:58.319Z,6600.00
2022-08-21T06:38:01.321Z,6288.00
2022-08-21T06:38:57.878Z,6044.00
2022-08-21T06:39:55.857Z,5964.00
2022-08-21T06:40:56.309Z,5976.00
2022-08-21T06:41:54.767Z,6144.00
2022-08-21T06:42:54.793Z,6160.00
2022-08-21T06:43:58.312Z,6176.00
2022-08-21T06:44:54.702Z,6184.00
2022-08-21T06:45:54.675Z,6184.00
2022-08-21T06:46:55.040Z,6208.00
2022-08-21T06:47:56.201Z,6344.00
2022-08-21T06:48:56.935Z,6464.00
2022-08-21T06:49:57.101Z,6532.00
2022-08-21T06:50:54.606Z,6592.00
2022-08-21T06:51:55.264Z,6612.00
2022-08-21T06:52:58.370Z,6612.00
2022-08-21T06:53:54.611Z,6704.00
2022-08-21T06:54:55.284Z,6828.00
2022-08-21T06:56:00.462Z,6952.00
2022-08-21T06:56:54.549Z,7044.00
2022-08-21T06:58:02.035Z,7180.00
2022-08-21T06:58:54.491Z,7292.00
2022-08-21T06:59:56.008Z,7432.00
2022-08-21T07:00:58.763Z,7656.00
2022-08-21T07:01:55.691Z,7904.00
2022-08-21T07:02:54.525Z,8172.00
2022-08-21T07:03:55.140Z,8448.00
2022-08-21T07:04:56.146Z,8736.00
2022-08-21T07:05:55.294Z,8936.00
2022-08-21T07:06:54.420Z,8972.00
2022-08-21T07:07:54.443Z,9012.00
2022-08-21T07:08:58.807Z,9144.00
2022-08-21T07:09:54.456Z,9380.00
2022-08-21T07:10:55.298Z,9648.00
2022-08-21T07:11:54.323Z,9888.00
2022-08-21T07:13:00.434Z,10144.00
2022-08-21T07:13:57.212Z,10396.00
2022-08-21T07:14:57.194Z,10608.00
2022-08-21T07:15:54.273Z,10756.00
2022-08-21T07:16:55.104Z,10860.00
2022-08-21T07:17:54.329Z,10932.00
2022-08-21T07:18:55.395Z,10944.00
2022-08-21T07:19:54.256Z,10936.00
2022-08-21T07:20:57.892Z,10996.00
2022-08-21T07:21:54.223Z,11116.00
2022-08-21T07:22:54.283Z,11244.00
2022-08-21T07:23:54.157Z,11360.00
2022-08-21T07:24:54.166Z,11444.00
2022-08-21T07:25:54.181Z,11464.00
2022-08-21T07:26:59.785Z,11376.00
2022-08-21T07:27:54.266Z,11064.00
2022-08-21T07:28:54.119Z,10556.00
2022-08-21T07:29:54.161Z,9976.00
2022-08-21T07:30:56.838Z,9448.00
2022-08-21T07:31:54.067Z,8992.00
2022-08-21T07:32:54.098Z,8496.00
2022-08-21T07:33:54.060Z,7992.00
2022-08-21T07:34:54.267Z,7632.00
2022-08-21T07:35:56.439Z,7436.00
2022-08-21T07:36:54.167Z,7168.00
2022-08-21T07:37:54.904Z,6824.00
2022-08-21T07:38:55.989Z,6500.00
2022-08-21T07:39:54.025Z,6160.00
2022-08-21T07:40:54.808Z,5828.00
2022-08-21T07:41:55.972Z,5652.00
2022-08-21T07:43:00.846Z,5456.00
2022-08-21T07:43:56.737Z,5312.00
2022-08-21T07:44:55.278Z,5456.00
2022-08-21T07:45:53.905Z,5408.00
2022-08-21T07:46:54.836Z,5448.00
2022-08-21T07:47:57.810Z,5544.00
2022-08-21T07:48:53.919Z,5648.00
2022-08-21T07:49:56.672Z,5888.00
2022-08-21T07:50:53.796Z,6192.00
2022-08-21T07:51:53.809Z,6524.00
2022-08-21T07:52:53.830Z,6920.00
2022-08-21T07:53:53.792Z,7156.00
2022-08-21T07:54:53.754Z,7376.00
2022-08-21T07:55:53.796Z,7860.00
2022-08-21T07:56:53.749Z,8432.00
2022-08-21T07:57:53.727Z,9308.00
2022-08-21T07:58:53.853Z,10376.00
2022-08-21T07:59:53.728Z,11352.00
2022-08-21T08:00:54.747Z,11780.00
2022-08-21T08:01:53.742Z,11964.00
2022-08-21T08:02:54.561Z,11924.00
2022-08-21T08:03:53.656Z,11716.00
2022-08-21T08:04:53.710Z,11744.00
2022-08-21T08:05:54.351Z,12232.00
2022-08-21T08:06:53.618Z,12836.00
2022-08-21T08:07:53.644Z,13324.00
2022-08-21T08:08:54.946Z,13704.00
2022-08-21T08:10:14.637Z,14024.00
2022-08-21T08:10:53.559Z,14240.00
2022-08-21T08:11:53.557Z,14308.00
2022-08-21T08:12:54.289Z,14304.00
2022-08-21T08:13:53.500Z,14140.00
2022-08-21T08:14:53.501Z,13924.00
2022-08-21T08:15:53.498Z,13832.00
2022-08-21T08:16:54.405Z,13804.00
2022-08-21T08:17:53.501Z,13660.00
2022-08-21T08:18:53.463Z,13236.00
2022-08-21T08:19:53.422Z,12828.00
2022-08-21T08:20:53.433Z,12572.00
2022-08-21T08:21:53.402Z,12440.00
2022-08-21T08:22:54.434Z,12376.00
2022-08-21T08:23:54.902Z,12316.00
2022-08-21T08:24:57.312Z,12316.00
2022-08-21T08:25:53.396Z,12352.00
2022-08-21T08:26:54.218Z,12516.00
2022-08-21T08:27:54.201Z,12992.00
2022-08-21T08:28:53.283Z,13436.00
2022-08-21T08:29:54.213Z,13596.00
2022-08-21T08:30:57.688Z,13432.00
2022-08-21T08:31:55.230Z,13208.00
2022-08-21T08:32:53.259Z,13060.00
2022-08-21T08:33:53.239Z,12932.00
2022-08-21T08:34:54.098Z,12684.00
2022-08-21T08:35:53.262Z,12356.00
2022-08-21T08:36:53.493Z,12164.00
2022-08-21T08:37:54.160Z,11984.00
2022-08-21T08:38:53.243Z,11696.00
2022-08-21T08:39:53.206Z,11396.00
2022-08-21T08:40:54.853Z,11256.00
2022-08-21T08:41:57.968Z,11460.00
2022-08-21T08:42:54.201Z,11904.00
2022-08-21T08:43:54.833Z,12324.00
2022-08-21T08:44:53.235Z,12488.00
2022-08-21T08:45:53.090Z,12244.00
2022-08-21T08:46:53.615Z,11804.00
2022-08-21T08:47:53.086Z,11472.00
2022-08-21T08:49:03.622Z,11260.00
2022-08-21T08:49:53.128Z,11380.00
2022-08-21T08:50:53.164Z,11812.00
2022-08-21T08:51:53.363Z,12336.00
2022-08-21T08:52:52.991Z,12788.00
2022-08-21T08:53:53.500Z,12988.00
2022-08-21T08:54:53.823Z,12420.00
2022-08-21T08:55:53.007Z,11672.00
2022-08-21T08:56:55.424Z,10796.00
2022-08-21T08:57:52.934Z,10140.00
2022-08-21T08:58:52.927Z,9872.00
2022-08-21T08:59:52.974Z,10016.00
2022-08-21T09:00:53.015Z,10160.00
2022-08-21T09:01:52.933Z,10360.00
2022-08-21T09:02:52.864Z,10788.00
2022-08-21T09:03:53.801Z,11128.00
2022-08-21T09:04:52.859Z,11524.00
2022-08-21T09:05:54.257Z,11704.00
2022-08-21T09:06:52.909Z,11608.00
2022-08-21T09:07:56.199Z,11264.00
2022-08-21T09:08:53.650Z,10704.00
2022-08-21T09:09:55.290Z,10004.00
2022-08-21T09:10:52.768Z,9284.00
2022-08-21T09:11:52.775Z,8540.00
2022-08-21T09:12:52.933Z,7900.00
2022-08-21T09:13:52.699Z,7628.00
2022-08-21T09:14:53.774Z,7440.00
2022-08-21T09:15:52.841Z,7324.00
2022-08-21T09:16:52.731Z,7196.00
2022-08-21T09:17:52.875Z,7064.00
2022-08-21T09:18:52.708Z,6936.00
2022-08-21T09:19:52.781Z,6864.00
2022-08-21T09:20:56.340Z,6840.00
2022-08-21T09:21:52.681Z,6808.00
2022-08-21T09:22:53.561Z,6768.00
2022-08-21T09:23:52.617Z,6744.00
2022-08-21T09:24:52.596Z,6732.00
2022-08-21T09:25:52.548Z,6696.00
2022-08-21T09:26:54.025Z,6608.00
2022-08-21T09:27:53.477Z,6484.00
2022-08-21T09:28:58.705Z,6352.00
2022-08-21T09:29:52.533Z,6200.00
2022-08-21T09:30:52.521Z,6036.00
2022-08-21T09:31:52.513Z,5904.00
2022-08-21T09:32:53.587Z,5788.00
2022-08-21T09:33:52.443Z,5696.00
2022-08-21T09:34:52.456Z,5624.00
2022-08-21T09:35:52.415Z,5580.00
2022-08-21T09:36:52.466Z,5544.00
2022-08-21T09:37:54.474Z,5512.00
2022-08-21T09:38:59.471Z,5492.00
2022-08-21T09:39:52.553Z,5472.00
2022-08-21T09:40:52.390Z,5448.00
2022-08-21T09:41:53.192Z,5436.00
2022-08-21T09:42:52.344Z,5428.00
2022-08-21T09:43:52.339Z,5408.00
2022-08-21T09:44:52.326Z,5396.00
2022-08-21T09:45:52.499Z,5376.00
2022-08-21T09:46:52.303Z,5368.00
2022-08-21T09:47:52.416Z,5340.00
2022-08-21T09:48:52.256Z,5332.00
2022-08-21T09:49:53.954Z,5336.00
2022-08-21T09:50:52.210Z,5340.00
2022-08-21T09:51:52.196Z,5340.00
2022-08-21T09:52:54.417Z,5344.00
2022-08-21T09:53:52.184Z,5368.00
2022-08-21T09:54:52.208Z,5432.00
2022-08-21T09:55:52.913Z,5424.00
2022-08-21T09:56:52.235Z,5328.00
2022-08-21T09:57:52.184Z,5284.00
2022-08-21T09:58:52.120Z,5268.00
2022-08-21T09:59:52.103Z,5272.00
2022-08-21T10:00:52.154Z,5280.00
2022-08-21T10:01:52.147Z,5284.00
2022-08-21T10:02:53.044Z,5284.00
2022-08-21T10:03:52.127Z,5276.00
2022-08-21T10:04:52.021Z,5260.00
2022-08-21T10:05:52.039Z,5236.00
2022-08-21T10:06:53.061Z,5208.00
2022-08-21T10:07:53.200Z,5172.00
2022-08-21T10:08:51.976Z,5128.00
2022-08-21T10:09:51.973Z,5088.00
2022-08-21T10:10:56.545Z,5044.00
2022-08-21T10:11:51.951Z,5032.00
2022-08-21T10:12:51.934Z,5056.00
2022-08-21T10:13:51.908Z,5100.00
2022-08-21T10:14:51.992Z,5160.00
2022-08-21T10:15:51.883Z,5248.00
2022-08-21T10:16:51.873Z,5320.00
2022-08-21T10:17:51.855Z,5380.00
2022-08-21T10:18:51.838Z,5320.00
2022-08-21T10:19:51.848Z,5188.00
2022-08-21T10:20:51.824Z,5104.00
2022-08-21T10:21:51.808Z,5100.00
2022-08-21T10:22:52.187Z,5156.00
2022-08-21T10:23:52.684Z,5172.00
2022-08-21T10:24:52.427Z,5108.00
2022-08-21T10:26:06.320Z,5028.00
2022-08-21T10:26:52.801Z,5028.00
2022-08-21T10:27:51.738Z,5064.00
2022-08-21T10:28:51.740Z,5100.00
2022-08-21T10:29:51.820Z,5180.00
2022-08-21T10:30:51.699Z,5228.00
2022-08-21T10:31:51.712Z,5252.00
2022-08-21T10:32:51.816Z,5228.00
2022-08-21T10:33:51.639Z,5224.00
2022-08-21T10:34:51.631Z,5256.00
2022-08-21T10:35:51.643Z,5320.00
2022-08-21T10:36:51.681Z,5456.00
2022-08-21T10:37:51.672Z,5532.00
2022-08-21T10:39:07.409Z,5516.00
2022-08-21T10:39:53.340Z,5556.00
2022-08-21T10:40:51.723Z,5572.00
2022-08-21T10:41:51.547Z,5692.00
2022-08-21T10:42:51.889Z,5704.00
2022-08-21T10:43:51.594Z,6092.00
2022-08-21T10:44:51.497Z,6316.00
2022-08-21T10:45:51.512Z,6488.00
2022-08-21T10:46:51.595Z,6876.00
2022-08-21T10:47:53.832Z,7184.00
2022-08-21T10:48:52.538Z,7744.00
2022-08-21T10:49:55.117Z,8252.00
2022-08-21T10:50:51.448Z,8244.00
2022-08-21T10:51:51.417Z,8140.00
2022-08-21T10:52:58.348Z,7796.00
2022-08-21T10:53:51.538Z,7376.00
2022-08-21T10:54:52.185Z,7200.00
2022-08-21T10:55:53.218Z,7248.00
2022-08-21T10:56:51.411Z,7000.00
2022-08-21T10:58:12.330Z,6836.00
2022-08-21T10:58:51.350Z,6692.00
2022-08-21T10:59:51.349Z,6580.00
2022-08-21T11:00:51.350Z,6304.00
2022-08-21T11:01:51.520Z,6140.00
2022-08-21T11:02:51.432Z,5944.00
2022-08-21T11:03:51.243Z,5804.00
2022-08-21T11:04:51.269Z,5776.00
2022-08-21T11:05:51.234Z,5768.00
2022-08-21T11:06:51.224Z,5812.00
2022-08-21T11:07:53.251Z,5944.00
2022-08-21T11:08:51.200Z,6144.00
2022-08-21T11:09:54.337Z,6460.00
2022-08-21T11:10:57.563Z,6748.00
2022-08-21T11:11:59.408Z,6828.00
2022-08-21T11:12:55.133Z,7116.00
2022-08-21T11:13:51.307Z,7644.00
2022-08-21T11:14:51.108Z,7940.00
2022-08-21T11:15:51.097Z,7908.00
2022-08-21T11:16:51.108Z,7944.00
2022-08-21T11:17:51.083Z,7532.00
2022-08-21T11:18:51.045Z,7312.00
2022-08-21T11:19:51.896Z,6844.00
2022-08-21T11:20:51.048Z,6588.00
2022-08-21T11:21:57.942Z,6536.00
2022-08-21T11:22:54.582Z,6368.00
2022-08-21T11:23:51.015Z,6356.00
2022-08-21T11:24:51.125Z,6536.00
2022-08-21T11:25:51.040Z,7216.00
2022-08-21T11:26:51.262Z,7516.00
2022-08-21T11:27:50.948Z,7768.00
2022-08-21T11:28:50.915Z,7700.00
2022-08-21T11:29:50.928Z,7936.00
2022-08-21T11:30:50.919Z,7680.00
2022-08-21T11:31:50.881Z,6664.00
2022-08-21T11:32:50.912Z,6328.00
2022-08-21T11:33:50.851Z,5876.00
2022-08-21T11:34:50.963Z,5672.00
2022-08-21T11:35:50.842Z,5388.00
2022-08-21T11:36:50.844Z,5256.00
2022-08-21T11:37:51.023Z,5356.00
2022-08-21T11:38:50.787Z,5356.00
2022-08-21T11:39:51.649Z,5300.00
2022-08-21T11:40:50.823Z,5604.00
2022-08-21T11:41:50.774Z,5640.00
2022-08-21T11:42:50.745Z,5636.00
2022-08-21T11:43:50.755Z,5524.00
2022-08-21T11:44:51.087Z,5516.00
2022-08-21T11:45:50.726Z,5644.00
2022-08-21T11:46:50.716Z,5860.00
2022-08-21T11:47:53.782Z,5624.00
2022-08-21T11:48:50.741Z,5436.00
2022-08-21T11:49:50.702Z,5424.00
2022-08-21T11:50:50.768Z,5820.00
2022-08-21T11:51:50.611Z,6044.00
2022-08-21T11:52:51.588Z,5920.00
2022-08-21T11:53:53.859Z,6020.00
2022-08-21T11:54:50.620Z,6280.00
2022-08-21T11:56:00.290Z,6300.00
2022-08-21T11:56:50.615Z,6392.00
2022-08-21T11:57:50.609Z,6768.00
2022-08-21T11:58:54.291Z,6748.00
2022-08-21T11:59:50.544Z,6440.00
2022-08-21T12:00:50.491Z,6268.00
2022-08-21T12:01:50.668Z,6120.00
2022-08-21T12:02:51.510Z,6084.00
2022-08-21T12:03:50.523Z,6072.00
2022-08-21T12:04:50.498Z,6020.00
2022-08-21T12:05:50.501Z,6040.00
2022-08-21T12:06:50.426Z,6016.00
2022-08-21T12:07:50.446Z,5960.00
2022-08-21T12:08:50.450Z,5896.00
2022-08-21T12:09:50.486Z,6072.00
2022-08-21T12:10:51.300Z,6348.00
2022-08-21T12:11:50.347Z,6508.00
2022-08-21T12:12:50.368Z,6712.00
2022-08-21T12:13:50.397Z,7268.00
2022-08-21T12:14:50.316Z,7852.00
2022-08-21T12:15:50.300Z,8536.00
2022-08-21T12:16:50.360Z,9296.00
2022-08-21T12:17:51.055Z,9716.00
2022-08-21T12:18:50.319Z,9804.00
2022-08-21T12:19:50.278Z,9644.00
2022-08-21T12:20:51.054Z,9348.00
2022-08-21T12:21:50.299Z,8916.00
2022-08-21T12:22:50.221Z,8416.00
2022-08-21T12:23:50.458Z,8228.00
2022-08-21T12:24:50.202Z,8304.00